LNI815 OEMA-VECC
Flight info
| Callsign | LNI815 |
|---|---|
| Flight time | N/A |
| Altitude | 37000 |
| Route | MEDRO J852 BDB Y214 RAPMA/N0456F290 Y214 KUTNA M440 MIDGU/N0471F370 M440 TULBU G652 SODEB G216 ALPOR M504 TELEM/N0470F390 A791 JJS JJS2A |
| Aircraft | A339/H-SADE1E2E3GHIJ3J5M1P2RWXY/LB2D1 |
Departure
| Time | 2026-04-30 06:34 |
|---|---|
| Airport | Prince Mohammad Bin Abdulaziz Airport (OEMA) |
Arrival
| Time | N/A |
|---|---|
| Airport | Netaji Subhash Chandra Bose International Airport (VECC) |
| Time | Latitude | Longitude | Altitude | Speed | Heading |
|---|---|---|---|---|---|
| 2026-04-30 06:07 | 24.55535 | 39.71252 | 2167 ft | 0 kts | 79° |
| 2026-04-30 06:23 | 24.55535 | 39.71248 | 2167 ft | 2 kts | 79° |
| 2026-04-30 06:23 | 24.55533 | 39.71237 | 2167 ft | 2 kts | 77° |
| 2026-04-30 06:23 | 24.55528 | 39.71222 | 2167 ft | 2 kts | 61° |
| 2026-04-30 06:23 | 24.55520 | 39.71208 | 2167 ft | 2 kts | 49° |
| 2026-04-30 06:24 | 24.55509 | 39.71197 | 2167 ft | 2 kts | 38° |
| 2026-04-30 06:24 | 24.55496 | 39.71188 | 2167 ft | 2 kts | 25° |
| 2026-04-30 06:24 | 24.55482 | 39.71182 | 2167 ft | 2 kts | 13° |
| 2026-04-30 06:24 | 24.55467 | 39.71180 | 2167 ft | 2 kts | 0° |
| 2026-04-30 06:25 | 24.55455 | 39.71180 | 2167 ft | 0 kts | 351° |
| 2026-04-30 06:25 | 24.55451 | 39.71181 | 2167 ft | 0 kts | 349° |
| 2026-04-30 06:27 | 24.55452 | 39.71181 | 2167 ft | 0 kts | 349° |
| 2026-04-30 06:27 | 24.55465 | 39.71178 | 2167 ft | 3 kts | 351° |
| 2026-04-30 06:27 | 24.55507 | 39.71170 | 2167 ft | 8 kts | 350° |
| 2026-04-30 06:27 | 24.55576 | 39.71156 | 2167 ft | 11 kts | 350° |
| 2026-04-30 06:28 | 24.55658 | 39.71140 | 2167 ft | 12 kts | 349° |
| 2026-04-30 06:28 | 24.55750 | 39.71120 | 2167 ft | 14 kts | 349° |
| 2026-04-30 06:28 | 24.55849 | 39.71098 | 2167 ft | 15 kts | 349° |
| 2026-04-30 06:28 | 24.55964 | 39.71073 | 2167 ft | 17 kts | 349° |
| 2026-04-30 06:29 | 24.56009 | 39.71005 | 2167 ft | 11 kts | 261° |
| 2026-04-30 06:29 | 24.55995 | 39.70916 | 2167 ft | 11 kts | 265° |
| 2026-04-30 06:29 | 24.56046 | 39.70861 | 2167 ft | 11 kts | 345° |
| 2026-04-30 06:29 | 24.56129 | 39.70842 | 2167 ft | 12 kts | 349° |
| 2026-04-30 06:30 | 24.56221 | 39.70822 | 2167 ft | 14 kts | 349° |
| 2026-04-30 06:30 | 24.56327 | 39.70800 | 2167 ft | 16 kts | 349° |
| 2026-04-30 06:30 | 24.56446 | 39.70775 | 2167 ft | 18 kts | 349° |
| 2026-04-30 06:30 | 24.56576 | 39.70746 | 2167 ft | 19 kts | 349° |
| 2026-04-30 06:31 | 24.56716 | 39.70717 | 2167 ft | 21 kts | 349° |
| 2026-04-30 06:31 | 24.56864 | 39.70684 | 2167 ft | 22 kts | 349° |
| 2026-04-30 06:31 | 24.57017 | 39.70652 | 2167 ft | 23 kts | 349° |
| 2026-04-30 06:31 | 24.57177 | 39.70618 | 2167 ft | 23 kts | 349° |
| 2026-04-30 06:32 | 24.57338 | 39.70584 | 2167 ft | 23 kts | 349° |
| 2026-04-30 06:32 | 24.57496 | 39.70550 | 2167 ft | 22 kts | 349° |
| 2026-04-30 06:32 | 24.57624 | 39.70518 | 2167 ft | 12 kts | 335° |
| 2026-04-30 06:32 | 24.57648 | 39.70437 | 2167 ft | 12 kts | 261° |
| 2026-04-30 06:33 | 24.57618 | 39.70354 | 2167 ft | 11 kts | 217° |
| 2026-04-30 06:33 | 24.57550 | 39.70351 | 2167 ft | 0 kts | 170° |
| 2026-04-30 06:33 | 24.57549 | 39.70351 | 2167 ft | 0 kts | 170° |
| 2026-04-30 06:33 | 24.57374 | 39.70387 | 2167 ft | 58 kts | 169° |
| 2026-04-30 06:34 | 24.56769 | 39.70517 | 2168 ft | 118 kts | 169° |
| 2026-04-30 06:34 | 24.55789 | 39.70725 | 2169 ft | 168 kts | 169° |
| 2026-04-30 06:34 | 24.54573 | 39.70983 | 2453 ft | 184 kts | 169° |
| 2026-04-30 06:34 | 24.53287 | 39.71256 | 2902 ft | 195 kts | 169° |
| 2026-04-30 06:35 | 24.51909 | 39.71552 | 3356 ft | 210 kts | 169° |
| 2026-04-30 06:35 | 24.50478 | 39.71858 | 3934 ft | 212 kts | 169° |
| 2026-04-30 06:35 | 24.48983 | 39.72177 | 4430 ft | 224 kts | 169° |
| 2026-04-30 06:35 | 24.47424 | 39.72509 | 4916 ft | 240 kts | 168° |
| 2026-04-30 06:36 | 24.45716 | 39.72874 | 5346 ft | 259 kts | 168° |
| 2026-04-30 06:36 | 24.43914 | 39.73258 | 5775 ft | 270 kts | 168° |
| 2026-04-30 06:36 | 24.42120 | 39.73853 | 6191 ft | 276 kts | 150° |
| 2026-04-30 06:36 | 24.40662 | 39.75239 | 6624 ft | 281 kts | 123° |
| 2026-04-30 06:37 | 24.39906 | 39.77189 | 7050 ft | 285 kts | 98° |
| 2026-04-30 06:37 | 24.40010 | 39.79371 | 7483 ft | 291 kts | 73° |
| 2026-04-30 06:37 | 24.40646 | 39.81491 | 7919 ft | 297 kts | 78° |
| 2026-04-30 06:37 | 24.40842 | 39.83776 | 8352 ft | 303 kts | 89° |
| 2026-04-30 06:38 | 24.40857 | 39.86078 | 8776 ft | 310 kts | 90° |
| 2026-04-30 06:38 | 24.40895 | 39.88483 | 9208 ft | 317 kts | 89° |
| 2026-04-30 06:38 | 24.40983 | 39.90918 | 9635 ft | 324 kts | 88° |
| 2026-04-30 06:38 | 24.41109 | 39.93391 | 10063 ft | 330 kts | 87° |
| 2026-04-30 06:39 | 24.41261 | 39.95911 | 10488 ft | 337 kts | 87° |
| 2026-04-30 06:39 | 24.41431 | 39.98499 | 10917 ft | 343 kts | 86° |
| 2026-04-30 06:39 | 24.41612 | 40.01128 | 11346 ft | 349 kts | 86° |
| 2026-04-30 06:39 | 24.41801 | 40.03812 | 11776 ft | 355 kts | 86° |
| 2026-04-30 06:40 | 24.41994 | 40.06533 | 12203 ft | 362 kts | 86° |
| 2026-04-30 06:40 | 24.42192 | 40.09298 | 12632 ft | 368 kts | 87° |
| 2026-04-30 06:40 | 24.42394 | 40.12112 | 13061 ft | 373 kts | 87° |
| 2026-04-30 06:40 | 24.42599 | 40.14969 | 13489 ft | 379 kts | 87° |
| 2026-04-30 06:41 | 24.42806 | 40.17867 | 13917 ft | 385 kts | 87° |
| 2026-04-30 06:41 | 24.43015 | 40.20799 | 14345 ft | 390 kts | 87° |
| 2026-04-30 06:41 | 24.43226 | 40.23772 | 14772 ft | 396 kts | 87° |
| 2026-04-30 06:41 | 24.43441 | 40.26798 | 15199 ft | 401 kts | 87° |
| 2026-04-30 06:42 | 24.43658 | 40.29860 | 15627 ft | 406 kts | 87° |
| 2026-04-30 06:42 | 24.43876 | 40.32955 | 16053 ft | 412 kts | 87° |
| 2026-04-30 06:42 | 24.44099 | 40.36134 | 16488 ft | 417 kts | 88° |
| 2026-04-30 06:42 | 24.44322 | 40.39304 | 16914 ft | 422 kts | 88° |
| 2026-04-30 06:43 | 24.44545 | 40.42493 | 17337 ft | 426 kts | 88° |
| 2026-04-30 06:43 | 24.44774 | 40.45785 | 17769 ft | 430 kts | 88° |
| 2026-04-30 06:43 | 24.45000 | 40.49046 | 18194 ft | 434 kts | 88° |
| 2026-04-30 06:43 | 24.45227 | 40.52333 | 18618 ft | 437 kts | 88° |
| 2026-04-30 06:44 | 24.45458 | 40.55682 | 19047 ft | 441 kts | 88° |
| 2026-04-30 06:44 | 24.45625 | 40.59056 | 19476 ft | 444 kts | 91° |
| 2026-04-30 06:44 | 24.45612 | 40.62421 | 19900 ft | 446 kts | 94° |
| 2026-04-30 06:44 | 24.45412 | 40.65768 | 20321 ft | 449 kts | 98° |
| 2026-04-30 06:45 | 24.45075 | 40.69210 | 20755 ft | 451 kts | 99° |
| 2026-04-30 06:45 | 24.44719 | 40.72620 | 21180 ft | 454 kts | 99° |
| 2026-04-30 06:45 | 24.44353 | 40.76099 | 21611 ft | 457 kts | 99° |
| 2026-04-30 06:45 | 24.43992 | 40.79554 | 22037 ft | 459 kts | 99° |
| 2026-04-30 06:46 | 24.43631 | 40.83029 | 22463 ft | 461 kts | 99° |
| 2026-04-30 06:46 | 24.43271 | 40.86517 | 22890 ft | 463 kts | 99° |
| 2026-04-30 06:46 | 24.42908 | 40.90035 | 23308 ft | 465 kts | 99° |
| 2026-04-30 06:46 | 24.42545 | 40.93541 | 23684 ft | 467 kts | 99° |
| 2026-04-30 06:47 | 24.42175 | 40.97109 | 24065 ft | 469 kts | 99° |
| 2026-04-30 06:47 | 24.41808 | 41.00637 | 24440 ft | 471 kts | 99° |
| 2026-04-30 06:47 | 24.41437 | 41.04195 | 24817 ft | 472 kts | 100° |
| 2026-04-30 06:47 | 24.41061 | 41.07803 | 25196 ft | 474 kts | 99° |
| 2026-04-30 06:48 | 24.40688 | 41.11378 | 25571 ft | 475 kts | 99° |
| 2026-04-30 06:48 | 24.40314 | 41.14956 | 25946 ft | 476 kts | 99° |
| 2026-04-30 06:48 | 24.39934 | 41.18589 | 26326 ft | 477 kts | 99° |
| 2026-04-30 06:48 | 24.39557 | 41.22181 | 26701 ft | 477 kts | 99° |
| 2026-04-30 06:49 | 24.39177 | 41.25784 | 27075 ft | 478 kts | 99° |
| 2026-04-30 06:49 | 24.38795 | 41.29391 | 27340 ft | 481 kts | 99° |
| 2026-04-30 06:49 | 24.38411 | 41.33017 | 27591 ft | 484 kts | 99° |
| 2026-04-30 06:49 | 24.38017 | 41.36718 | 27847 ft | 487 kts | 99° |
| 2026-04-30 06:50 | 24.37627 | 41.40387 | 28098 ft | 489 kts | 99° |
| 2026-04-30 06:50 | 24.37233 | 41.44072 | 28349 ft | 492 kts | 99° |
| 2026-04-30 06:50 | 24.36831 | 41.47833 | 28605 ft | 494 kts | 99° |
| 2026-04-30 06:50 | 24.36432 | 41.51559 | 28856 ft | 497 kts | 99° |
| 2026-04-30 06:51 | 24.36029 | 41.55303 | 29108 ft | 499 kts | 99° |
| 2026-04-30 06:51 | 24.35624 | 41.59070 | 29360 ft | 501 kts | 98° |
| 2026-04-30 06:51 | 24.35210 | 41.62898 | 29615 ft | 503 kts | 98° |
| 2026-04-30 06:51 | 24.34799 | 41.66700 | 29865 ft | 505 kts | 99° |
| 2026-04-30 06:52 | 24.34387 | 41.70495 | 30115 ft | 506 kts | 98° |
| 2026-04-30 06:52 | 24.33972 | 41.74305 | 30368 ft | 507 kts | 98° |
| 2026-04-30 06:52 | 24.33539 | 41.78170 | 30623 ft | 508 kts | 99° |
| 2026-04-30 06:52 | 24.32974 | 41.81974 | 30875 ft | 508 kts | 103° |
| 2026-04-30 06:53 | 24.32220 | 41.85742 | 31127 ft | 508 kts | 106° |
| 2026-04-30 06:53 | 24.31294 | 41.89464 | 31380 ft | 509 kts | 108° |
| 2026-04-30 06:53 | 24.30313 | 41.93179 | 31633 ft | 509 kts | 108° |
| 2026-04-30 06:53 | 24.29324 | 41.96884 | 31884 ft | 510 kts | 108° |
| 2026-04-30 06:54 | 24.28321 | 42.00641 | 32140 ft | 510 kts | 108° |
| 2026-04-30 06:54 | 24.27333 | 42.04359 | 32392 ft | 511 kts | 107° |
| 2026-04-30 06:54 | 24.26350 | 42.08070 | 32643 ft | 511 kts | 107° |
| 2026-04-30 06:54 | 24.25366 | 42.11787 | 32895 ft | 511 kts | 107° |
| 2026-04-30 06:55 | 24.24383 | 42.15504 | 33147 ft | 511 kts | 107° |
| 2026-04-30 06:55 | 24.23384 | 42.19276 | 33403 ft | 511 kts | 106° |
| 2026-04-30 06:55 | 24.22400 | 42.22990 | 33654 ft | 511 kts | 106° |
| 2026-04-30 06:55 | 24.21416 | 42.26705 | 33906 ft | 510 kts | 106° |
| 2026-04-30 06:56 | 24.20433 | 42.30409 | 34158 ft | 510 kts | 106° |
| 2026-04-30 06:56 | 24.19452 | 42.34110 | 34409 ft | 510 kts | 106° |
| 2026-04-30 06:56 | 24.18466 | 42.37824 | 34662 ft | 509 kts | 106° |
| 2026-04-30 06:56 | 24.17476 | 42.41546 | 34916 ft | 508 kts | 106° |
| 2026-04-30 06:57 | 24.16490 | 42.45250 | 35169 ft | 507 kts | 106° |
| 2026-04-30 06:57 | 24.15504 | 42.48945 | 35422 ft | 506 kts | 106° |
| 2026-04-30 06:57 | 24.14520 | 42.52628 | 35675 ft | 505 kts | 106° |
| 2026-04-30 06:57 | 24.13539 | 42.56299 | 35928 ft | 503 kts | 106° |
| 2026-04-30 06:58 | 24.12563 | 42.59942 | 36179 ft | 502 kts | 106° |
| 2026-04-30 06:58 | 24.11588 | 42.63581 | 36431 ft | 500 kts | 106° |
| 2026-04-30 06:58 | 24.10871 | 42.66256 | 36614 ft | 498 kts | 106° |
| 2026-04-30 06:58 | 24.09756 | 42.70410 | 36897 ft | 496 kts | 106° |
| 2026-04-30 06:59 | 24.08786 | 42.74015 | 37005 ft | 497 kts | 106° |
| 2026-04-30 06:59 | 24.06825 | 42.81295 | 37009 ft | 504 kts | 106° |
| 2026-04-30 07:00 | 24.04834 | 42.88674 | 37010 ft | 511 kts | 106° |
| 2026-04-30 07:00 | 24.02809 | 42.96176 | 37010 ft | 518 kts | 106° |
| 2026-04-30 07:01 | 24.00758 | 43.03765 | 37011 ft | 525 kts | 107° |
| 2026-04-30 07:01 | 23.98684 | 43.11417 | 37011 ft | 531 kts | 107° |
| 2026-04-30 07:02 | 23.96581 | 43.19150 | 37010 ft | 532 kts | 108° |
| 2026-04-30 07:02 | 23.94479 | 43.26847 | 37009 ft | 531 kts | 108° |
| 2026-04-30 07:03 | 23.92367 | 43.34562 | 37009 ft | 531 kts | 108° |
| 2026-04-30 07:03 | 23.90239 | 43.42324 | 37009 ft | 531 kts | 108° |
| 2026-04-30 07:04 | 23.88133 | 43.49995 | 37009 ft | 531 kts | 108° |
| 2026-04-30 07:04 | 23.86018 | 43.57679 | 37008 ft | 531 kts | 108° |
| 2026-04-30 07:05 | 23.82857 | 43.69137 | 37006 ft | 531 kts | 108° |
| 2026-04-30 07:05 | 23.80734 | 43.76810 | 37008 ft | 531 kts | 108° |
| 2026-04-30 07:06 | 23.78653 | 43.84521 | 37008 ft | 532 kts | 106° |
| 2026-04-30 07:06 | 23.77186 | 43.92426 | 37009 ft | 533 kts | 99° |
| 2026-04-30 07:07 | 23.76467 | 44.00479 | 37009 ft | 533 kts | 95° |
| 2026-04-30 07:07 | 23.75909 | 44.08529 | 37009 ft | 533 kts | 95° |
| 2026-04-30 07:08 | 23.75329 | 44.16584 | 37009 ft | 533 kts | 95° |
| 2026-04-30 07:08 | 23.74728 | 44.24623 | 37009 ft | 533 kts | 95° |
| 2026-04-30 07:09 | 23.74121 | 44.32627 | 37009 ft | 533 kts | 95° |
| 2026-04-30 07:09 | 23.73504 | 44.40688 | 37009 ft | 533 kts | 95° |
| 2026-04-30 07:10 | 23.72885 | 44.48729 | 37008 ft | 533 kts | 95° |
| 2026-04-30 07:10 | 23.72261 | 44.56774 | 37008 ft | 533 kts | 95° |
| 2026-04-30 07:11 | 23.71633 | 44.64822 | 37008 ft | 533 kts | 95° |
| 2026-04-30 07:11 | 23.71039 | 44.72390 | 37007 ft | 533 kts | 95° |
| 2026-04-30 07:12 | 23.70395 | 44.80511 | 37009 ft | 533 kts | 95° |
| 2026-04-30 07:12 | 23.69752 | 44.88572 | 37009 ft | 533 kts | 95° |
| 2026-04-30 07:13 | 23.69115 | 44.96611 | 37010 ft | 532 kts | 96° |
| 2026-04-30 07:13 | 23.68473 | 45.04599 | 37010 ft | 529 kts | 96° |
| 2026-04-30 07:14 | 23.67826 | 45.12528 | 37010 ft | 526 kts | 97° |
| 2026-04-30 07:14 | 23.67171 | 45.20471 | 37009 ft | 524 kts | 97° |
| 2026-04-30 07:15 | 23.66523 | 45.28361 | 37009 ft | 524 kts | 97° |
| 2026-04-30 07:15 | 23.65873 | 45.36234 | 37009 ft | 524 kts | 97° |
| 2026-04-30 07:16 | 23.65217 | 45.44107 | 37009 ft | 524 kts | 97° |
| 2026-04-30 07:16 | 23.64554 | 45.52017 | 37008 ft | 524 kts | 97° |
| 2026-04-30 07:17 | 23.63885 | 45.59925 | 37008 ft | 524 kts | 97° |
| 2026-04-30 07:18 | 23.62884 | 45.71735 | 37009 ft | 524 kts | 97° |
| 2026-04-30 07:18 | 23.62210 | 45.79636 | 37016 ft | 524 kts | 97° |
| 2026-04-30 07:19 | 23.61530 | 45.87522 | 37023 ft | 524 kts | 97° |
| 2026-04-30 07:19 | 23.60843 | 45.95448 | 37029 ft | 524 kts | 97° |
| 2026-04-30 07:20 | 23.60158 | 46.03292 | 37032 ft | 524 kts | 97° |
| 2026-04-30 07:20 | 23.59463 | 46.11219 | 37034 ft | 524 kts | 97° |
| 2026-04-30 07:21 | 23.58769 | 46.19084 | 37034 ft | 524 kts | 97° |
| 2026-04-30 07:21 | 23.58069 | 46.26962 | 37033 ft | 524 kts | 97° |
| 2026-04-30 07:22 | 23.57008 | 46.38815 | 37029 ft | 524 kts | 97° |
| 2026-04-30 07:22 | 23.56301 | 46.46646 | 37027 ft | 524 kts | 97° |
| 2026-04-30 07:23 | 23.55584 | 46.54561 | 37026 ft | 524 kts | 97° |
| 2026-04-30 07:23 | 23.54868 | 46.62458 | 37026 ft | 524 kts | 97° |
| 2026-04-30 07:24 | 23.54152 | 46.70291 | 37024 ft | 524 kts | 98° |
| 2026-04-30 07:24 | 23.53422 | 46.78217 | 37026 ft | 524 kts | 98° |
| 2026-04-30 07:25 | 23.52697 | 46.86044 | 37027 ft | 523 kts | 98° |
| 2026-04-30 07:25 | 23.51964 | 46.93911 | 37027 ft | 521 kts | 98° |
| 2026-04-30 07:26 | 23.51235 | 47.01698 | 37027 ft | 519 kts | 98° |
| 2026-04-30 07:26 | 23.50500 | 47.09501 | 37026 ft | 517 kts | 98° |
| 2026-04-30 07:27 | 23.49762 | 47.17287 | 37026 ft | 517 kts | 98° |
| 2026-04-30 07:27 | 23.49026 | 47.25016 | 37026 ft | 517 kts | 98° |
| 2026-04-30 07:28 | 23.48279 | 47.32821 | 37026 ft | 517 kts | 98° |
| 2026-04-30 07:28 | 23.47532 | 47.40572 | 37026 ft | 517 kts | 98° |
| 2026-04-30 07:29 | 23.46779 | 47.48341 | 37026 ft | 517 kts | 98° |
| 2026-04-30 07:29 | 23.46028 | 47.56079 | 37026 ft | 517 kts | 98° |
| 2026-04-30 07:30 | 23.44891 | 47.67747 | 37024 ft | 517 kts | 98° |
| 2026-04-30 07:31 | 23.44127 | 47.75509 | 37026 ft | 517 kts | 98° |
| 2026-04-30 07:31 | 23.43361 | 47.83255 | 37026 ft | 517 kts | 98° |
| 2026-04-30 07:32 | 23.42587 | 47.91032 | 37026 ft | 517 kts | 98° |
| 2026-04-30 07:32 | 23.41812 | 47.98788 | 37026 ft | 517 kts | 98° |
| 2026-04-30 07:33 | 23.41033 | 48.06536 | 37026 ft | 517 kts | 98° |
| 2026-04-30 07:33 | 23.40251 | 48.14279 | 37026 ft | 517 kts | 98° |
| 2026-04-30 07:34 | 23.39464 | 48.22018 | 37026 ft | 517 kts | 98° |
| 2026-04-30 07:34 | 23.38669 | 48.29808 | 37026 ft | 517 kts | 98° |
| 2026-04-30 07:35 | 23.38072 | 48.37600 | 37027 ft | 518 kts | 94° |
| 2026-04-30 07:35 | 23.37760 | 48.45404 | 37026 ft | 518 kts | 94° |
| 2026-04-30 07:36 | 23.37461 | 48.53202 | 37026 ft | 518 kts | 94° |
| 2026-04-30 07:36 | 23.37148 | 48.60971 | 37026 ft | 518 kts | 94° |
| 2026-04-30 07:37 | 23.36824 | 48.68807 | 37024 ft | 518 kts | 94° |
| 2026-04-30 07:37 | 23.36496 | 48.76595 | 37026 ft | 518 kts | 94° |
| 2026-04-30 07:38 | 23.36163 | 48.84424 | 37026 ft | 518 kts | 94° |
| 2026-04-30 07:38 | 23.35827 | 48.92208 | 37026 ft | 518 kts | 94° |
| 2026-04-30 07:39 | 23.35487 | 49.00007 | 37026 ft | 518 kts | 94° |
| 2026-04-30 07:39 | 23.35141 | 49.07847 | 37027 ft | 517 kts | 94° |
| 2026-04-30 07:40 | 23.34800 | 49.15607 | 37027 ft | 515 kts | 94° |
| 2026-04-30 07:40 | 23.34455 | 49.23348 | 37026 ft | 514 kts | 94° |
| 2026-04-30 07:41 | 23.34104 | 49.31096 | 37018 ft | 514 kts | 94° |
| 2026-04-30 07:41 | 23.33747 | 49.38879 | 37000 ft | 514 kts | 94° |
| 2026-04-30 07:42 | 23.33388 | 49.46614 | 36975 ft | 514 kts | 94° |
| 2026-04-30 07:42 | 23.33025 | 49.54356 | 36953 ft | 514 kts | 94° |
| 2026-04-30 07:43 | 23.32658 | 49.62099 | 36940 ft | 514 kts | 94° |
| 2026-04-30 07:43 | 23.32288 | 49.69830 | 36932 ft | 514 kts | 95° |
| 2026-04-30 07:44 | 23.31915 | 49.77531 | 36930 ft | 514 kts | 95° |
| 2026-04-30 07:44 | 23.31535 | 49.85322 | 36928 ft | 514 kts | 95° |
| 2026-04-30 07:45 | 23.31155 | 49.93009 | 36927 ft | 514 kts | 95° |
| 2026-04-30 07:45 | 23.30767 | 50.00789 | 36927 ft | 514 kts | 95° |
| 2026-04-30 07:46 | 23.30378 | 50.08527 | 36927 ft | 514 kts | 95° |
| 2026-04-30 07:46 | 23.29986 | 50.16232 | 36927 ft | 514 kts | 95° |
| 2026-04-30 07:47 | 23.29587 | 50.24009 | 36927 ft | 514 kts | 95° |
| 2026-04-30 07:47 | 23.29188 | 50.31697 | 36927 ft | 514 kts | 95° |
| 2026-04-30 07:48 | 23.28783 | 50.39446 | 36928 ft | 514 kts | 95° |
| 2026-04-30 07:48 | 23.28374 | 50.47183 | 36928 ft | 514 kts | 95° |
| 2026-04-30 07:49 | 23.27962 | 50.54907 | 36928 ft | 514 kts | 95° |
| 2026-04-30 07:49 | 23.27546 | 50.62645 | 36928 ft | 514 kts | 95° |
| 2026-04-30 07:50 | 23.27126 | 50.70380 | 36926 ft | 514 kts | 95° |
| 2026-04-30 07:50 | 23.26701 | 50.78116 | 36927 ft | 514 kts | 95° |
| 2026-04-30 07:51 | 23.26273 | 50.85855 | 36927 ft | 514 kts | 95° |
| 2026-04-30 07:51 | 23.25841 | 50.93577 | 36927 ft | 514 kts | 95° |
| 2026-04-30 07:52 | 23.25405 | 51.01314 | 36927 ft | 515 kts | 95° |
| 2026-04-30 07:52 | 23.24961 | 51.09108 | 36927 ft | 517 kts | 95° |
| 2026-04-30 07:53 | 23.24514 | 51.16889 | 36927 ft | 518 kts | 95° |
| 2026-04-30 07:53 | 23.24063 | 51.24667 | 36928 ft | 518 kts | 95° |
| 2026-04-30 07:54 | 23.23605 | 51.32448 | 36928 ft | 518 kts | 95° |
| 2026-04-30 07:54 | 23.22912 | 51.40226 | 36927 ft | 516 kts | 101° |
| 2026-04-30 07:55 | 23.21466 | 51.47804 | 36927 ft | 514 kts | 107° |
| 2026-04-30 07:55 | 23.19250 | 51.55101 | 36928 ft | 511 kts | 114° |
| 2026-04-30 07:56 | 23.16497 | 51.62209 | 36928 ft | 510 kts | 116° |
| 2026-04-30 07:56 | 23.13730 | 51.69238 | 36921 ft | 510 kts | 116° |
| 2026-04-30 07:57 | 23.10958 | 51.76331 | 36909 ft | 510 kts | 116° |
| 2026-04-30 07:57 | 23.08200 | 51.83406 | 36891 ft | 510 kts | 116° |
| 2026-04-30 07:58 | 23.05436 | 51.90490 | 36871 ft | 510 kts | 116° |
| 2026-04-30 07:58 | 23.02678 | 51.97543 | 36858 ft | 510 kts | 116° |
| 2026-04-30 07:59 | 22.99930 | 52.04565 | 36852 ft | 508 kts | 116° |
| 2026-04-30 07:59 | 22.97178 | 52.11589 | 36848 ft | 505 kts | 116° |
| 2026-04-30 08:00 | 22.93077 | 52.22025 | 36845 ft | 501 kts | 115° |
| 2026-04-30 08:00 | 22.90349 | 52.28954 | 36845 ft | 499 kts | 115° |
| 2026-04-30 08:01 | 22.87651 | 52.35796 | 36845 ft | 497 kts | 115° |
| 2026-04-30 08:01 | 22.84987 | 52.42683 | 36844 ft | 497 kts | 113° |
| 2026-04-30 08:02 | 22.82046 | 52.53476 | 36844 ft | 500 kts | 103° |
| 2026-04-30 08:03 | 22.80080 | 52.68384 | 36843 ft | 501 kts | 99° |
| 2026-04-30 08:04 | 22.79194 | 52.75836 | 36844 ft | 501 kts | 99° |
| 2026-04-30 08:04 | 22.78290 | 52.83305 | 36844 ft | 501 kts | 99° |
| 2026-04-30 08:05 | 22.77379 | 52.90755 | 36844 ft | 502 kts | 99° |
| 2026-04-30 08:05 | 22.76461 | 52.98227 | 36844 ft | 502 kts | 99° |
| 2026-04-30 08:06 | 22.75539 | 53.05705 | 36844 ft | 502 kts | 99° |
| 2026-04-30 08:06 | 22.74613 | 53.13198 | 36844 ft | 502 kts | 99° |
| 2026-04-30 08:07 | 22.73690 | 53.20636 | 36844 ft | 502 kts | 99° |
| 2026-04-30 08:07 | 22.72759 | 53.28106 | 36844 ft | 502 kts | 99° |
| 2026-04-30 08:08 | 22.71823 | 53.35589 | 36844 ft | 502 kts | 99° |
| 2026-04-30 08:08 | 22.70886 | 53.43039 | 36844 ft | 502 kts | 99° |
| 2026-04-30 08:09 | 22.69939 | 53.50531 | 36844 ft | 502 kts | 99° |
| 2026-04-30 08:09 | 22.68991 | 53.58021 | 36844 ft | 502 kts | 99° |
| 2026-04-30 08:10 | 22.68053 | 53.65432 | 36844 ft | 502 kts | 99° |
| 2026-04-30 08:10 | 22.67102 | 53.72896 | 36844 ft | 502 kts | 99° |
| 2026-04-30 08:11 | 22.66145 | 53.80381 | 36844 ft | 502 kts | 99° |
| 2026-04-30 08:11 | 22.65189 | 53.87820 | 36844 ft | 502 kts | 99° |
| 2026-04-30 08:12 | 22.64219 | 53.95338 | 36844 ft | 502 kts | 99° |
| 2026-04-30 08:12 | 22.63258 | 54.02759 | 36844 ft | 502 kts | 99° |
| 2026-04-30 08:13 | 22.62285 | 54.10251 | 36844 ft | 502 kts | 99° |
| 2026-04-30 08:13 | 22.61315 | 54.17677 | 36844 ft | 502 kts | 99° |
| 2026-04-30 08:14 | 22.60333 | 54.25167 | 36844 ft | 502 kts | 99° |
| 2026-04-30 08:14 | 22.59354 | 54.32628 | 36844 ft | 502 kts | 99° |
| 2026-04-30 08:15 | 22.58376 | 54.40048 | 36844 ft | 502 kts | 99° |
| 2026-04-30 08:15 | 22.57388 | 54.47510 | 36844 ft | 502 kts | 99° |
| 2026-04-30 08:16 | 22.56393 | 54.54988 | 36844 ft | 502 kts | 99° |
| 2026-04-30 08:16 | 22.55398 | 54.62439 | 36844 ft | 502 kts | 99° |
| 2026-04-30 08:17 | 22.54403 | 54.69865 | 36843 ft | 502 kts | 99° |
| 2026-04-30 08:17 | 22.53399 | 54.77327 | 36844 ft | 502 kts | 99° |
| 2026-04-30 08:18 | 22.52392 | 54.84790 | 36847 ft | 502 kts | 99° |
| 2026-04-30 08:18 | 22.51385 | 54.92215 | 36853 ft | 506 kts | 99° |
| 2026-04-30 08:19 | 22.50359 | 54.99768 | 36860 ft | 507 kts | 99° |
| 2026-04-30 08:19 | 22.49337 | 55.07264 | 36865 ft | 505 kts | 100° |
| 2026-04-30 08:20 | 22.48315 | 55.14728 | 36869 ft | 504 kts | 100° |
| 2026-04-30 08:20 | 22.47284 | 55.22218 | 36870 ft | 503 kts | 100° |
| 2026-04-30 08:21 | 22.46459 | 55.29694 | 36870 ft | 504 kts | 94° |
| 2026-04-30 08:21 | 22.46668 | 55.37249 | 36870 ft | 506 kts | 84° |
| 2026-04-30 08:22 | 22.48049 | 55.44715 | 36871 ft | 508 kts | 75° |
| 2026-04-30 08:22 | 22.50457 | 55.51841 | 36871 ft | 509 kts | 68° |
| 2026-04-30 08:23 | 22.53163 | 55.58921 | 36871 ft | 509 kts | 68° |
| 2026-04-30 08:23 | 22.55838 | 55.65968 | 36870 ft | 509 kts | 69° |
| 2026-04-30 08:24 | 22.58484 | 55.73009 | 36870 ft | 509 kts | 69° |
| 2026-04-30 08:24 | 22.61138 | 55.80108 | 36872 ft | 509 kts | 69° |
| 2026-04-30 08:25 | 22.63770 | 55.87164 | 36871 ft | 509 kts | 69° |
| 2026-04-30 08:25 | 22.66418 | 55.94274 | 36871 ft | 509 kts | 69° |
| 2026-04-30 08:26 | 22.69049 | 56.01351 | 36871 ft | 509 kts | 69° |
| 2026-04-30 08:26 | 22.71678 | 56.08432 | 36871 ft | 509 kts | 69° |
| 2026-04-30 08:27 | 22.74307 | 56.15526 | 36871 ft | 509 kts | 69° |
| 2026-04-30 08:27 | 22.76945 | 56.22657 | 36871 ft | 509 kts | 69° |
| 2026-04-30 08:28 | 22.79559 | 56.29736 | 36870 ft | 509 kts | 69° |
| 2026-04-30 08:28 | 22.82067 | 56.36882 | 36870 ft | 509 kts | 72° |
| 2026-04-30 08:29 | 22.83922 | 56.44218 | 36870 ft | 507 kts | 78° |
| 2026-04-30 08:29 | 22.85355 | 56.51721 | 36871 ft | 508 kts | 79° |
| 2026-04-30 08:30 | 22.86749 | 56.59177 | 36870 ft | 507 kts | 79° |
| 2026-04-30 08:30 | 22.88156 | 56.66654 | 36869 ft | 507 kts | 79° |
| 2026-04-30 08:31 | 22.89559 | 56.74087 | 36866 ft | 508 kts | 79° |
| 2026-04-30 08:31 | 22.90977 | 56.81608 | 36852 ft | 509 kts | 79° |
| 2026-04-30 08:32 | 22.92386 | 56.89108 | 36834 ft | 510 kts | 79° |
| 2026-04-30 08:32 | 22.93790 | 56.96608 | 36814 ft | 512 kts | 79° |
| 2026-04-30 08:33 | 22.95210 | 57.04208 | 36802 ft | 512 kts | 79° |
| 2026-04-30 08:33 | 22.96611 | 57.11720 | 36795 ft | 513 kts | 79° |
| 2026-04-30 08:34 | 22.98027 | 57.19333 | 36792 ft | 515 kts | 79° |
| 2026-04-30 08:34 | 22.99459 | 57.26925 | 36789 ft | 516 kts | 77° |
| 2026-04-30 08:35 | 23.01401 | 57.34375 | 36789 ft | 518 kts | 71° |
| 2026-04-30 08:35 | 23.03908 | 57.41696 | 36788 ft | 520 kts | 69° |
| 2026-04-30 08:36 | 23.06491 | 57.49030 | 36788 ft | 521 kts | 69° |
| 2026-04-30 08:36 | 23.09046 | 57.56347 | 36789 ft | 521 kts | 69° |
| 2026-04-30 08:37 | 23.11597 | 57.63698 | 36789 ft | 521 kts | 69° |
| 2026-04-30 08:37 | 23.14128 | 57.71015 | 36787 ft | 521 kts | 69° |
| 2026-04-30 08:38 | 23.16682 | 57.78414 | 36790 ft | 521 kts | 69° |
| 2026-04-30 08:38 | 23.19203 | 57.85727 | 36789 ft | 521 kts | 69° |
| 2026-04-30 08:39 | 23.21746 | 57.93118 | 36789 ft | 521 kts | 69° |
| 2026-04-30 08:39 | 23.24266 | 58.00452 | 36789 ft | 521 kts | 69° |
| 2026-04-30 08:40 | 23.27001 | 58.07747 | 36789 ft | 521 kts | 67° |
| 2026-04-30 08:40 | 23.29783 | 58.14972 | 36789 ft | 521 kts | 67° |
| 2026-04-30 08:41 | 23.32556 | 58.22199 | 36790 ft | 521 kts | 67° |
| 2026-04-30 08:41 | 23.35327 | 58.29455 | 36789 ft | 521 kts | 67° |
| 2026-04-30 08:42 | 23.38106 | 58.36751 | 36790 ft | 521 kts | 67° |
| 2026-04-30 08:42 | 23.40854 | 58.43976 | 36789 ft | 521 kts | 67° |
| 2026-04-30 08:43 | 23.43568 | 58.51305 | 36789 ft | 521 kts | 68° |
| 2026-04-30 08:43 | 23.46243 | 58.58612 | 36789 ft | 521 kts | 68° |
| 2026-04-30 08:44 | 23.48911 | 58.65904 | 36789 ft | 521 kts | 68° |
| 2026-04-30 08:44 | 23.51586 | 58.73215 | 36788 ft | 521 kts | 68° |
| 2026-04-30 08:45 | 23.54257 | 58.80528 | 36789 ft | 521 kts | 68° |
| 2026-04-30 08:45 | 23.56922 | 58.87837 | 36789 ft | 521 kts | 68° |
| 2026-04-30 08:46 | 23.59583 | 58.95142 | 36788 ft | 521 kts | 68° |
| 2026-04-30 08:46 | 23.62241 | 59.02455 | 36789 ft | 521 kts | 68° |
| 2026-04-30 08:47 | 23.64917 | 59.09827 | 36790 ft | 521 kts | 68° |
| 2026-04-30 08:47 | 23.67570 | 59.17151 | 36789 ft | 521 kts | 68° |
| 2026-04-30 08:48 | 23.70226 | 59.24495 | 36789 ft | 521 kts | 68° |
| 2026-04-30 08:48 | 23.72874 | 59.31831 | 36788 ft | 521 kts | 68° |
| 2026-04-30 08:49 | 23.75518 | 59.39172 | 36789 ft | 521 kts | 68° |
| 2026-04-30 08:49 | 23.78113 | 59.46520 | 36789 ft | 521 kts | 70° |
| 2026-04-30 08:50 | 23.80138 | 59.54074 | 36789 ft | 521 kts | 77° |
| 2026-04-30 08:50 | 23.81478 | 59.61810 | 36789 ft | 521 kts | 80° |
| 2026-04-30 08:51 | 23.82677 | 59.69613 | 36787 ft | 521 kts | 81° |
| 2026-04-30 08:51 | 23.83897 | 59.77390 | 36789 ft | 521 kts | 81° |
| 2026-04-30 08:52 | 23.85127 | 59.85148 | 36790 ft | 521 kts | 81° |
| 2026-04-30 08:52 | 23.86360 | 59.92934 | 36790 ft | 521 kts | 81° |
| 2026-04-30 08:53 | 23.87585 | 60.00712 | 36789 ft | 521 kts | 81° |
| 2026-04-30 08:53 | 23.88801 | 60.08468 | 36789 ft | 522 kts | 81° |
| 2026-04-30 08:54 | 23.90023 | 60.16289 | 36789 ft | 521 kts | 81° |
| 2026-04-30 08:54 | 23.91232 | 60.24057 | 36789 ft | 521 kts | 81° |
| 2026-04-30 08:55 | 23.92447 | 60.31887 | 36789 ft | 521 kts | 81° |
| 2026-04-30 08:55 | 23.93645 | 60.39634 | 36789 ft | 521 kts | 81° |
| 2026-04-30 08:56 | 23.94847 | 60.47440 | 36787 ft | 521 kts | 81° |
| 2026-04-30 08:56 | 23.96041 | 60.55214 | 36789 ft | 521 kts | 81° |
| 2026-04-30 08:57 | 23.97238 | 60.63026 | 36789 ft | 521 kts | 81° |
| 2026-04-30 08:57 | 23.98429 | 60.70838 | 36788 ft | 521 kts | 81° |
| 2026-04-30 08:58 | 23.99614 | 60.78637 | 36789 ft | 522 kts | 81° |
| 2026-04-30 08:58 | 24.00789 | 60.86389 | 36790 ft | 521 kts | 81° |
| 2026-04-30 08:59 | 24.01968 | 60.94203 | 36789 ft | 521 kts | 81° |
| 2026-04-30 08:59 | 24.03142 | 61.02021 | 36790 ft | 521 kts | 81° |
| 2026-04-30 09:00 | 24.04307 | 61.09802 | 36789 ft | 521 kts | 81° |
| 2026-04-30 09:00 | 24.05467 | 61.17577 | 36789 ft | 521 kts | 81° |
| 2026-04-30 09:01 | 24.06628 | 61.25390 | 36790 ft | 521 kts | 81° |
| 2026-04-30 09:01 | 24.07412 | 61.33258 | 36793 ft | 521 kts | 87° |
| 2026-04-30 09:02 | 24.07169 | 61.45087 | 36806 ft | 520 kts | 94° |
| 2026-04-30 09:02 | 24.06670 | 61.52951 | 36816 ft | 520 kts | 95° |
| 2026-04-30 09:03 | 24.06178 | 61.60826 | 36828 ft | 520 kts | 94° |
| 2026-04-30 09:03 | 24.05696 | 61.68686 | 36839 ft | 520 kts | 95° |
| 2026-04-30 09:04 | 24.05215 | 61.76545 | 36854 ft | 520 kts | 95° |
| 2026-04-30 09:04 | 24.04731 | 61.84413 | 36863 ft | 520 kts | 95° |
| 2026-04-30 09:05 | 24.04243 | 61.92285 | 36867 ft | 520 kts | 95° |
| 2026-04-30 09:05 | 24.03750 | 62.00158 | 36869 ft | 520 kts | 95° |
| 2026-04-30 09:06 | 24.03255 | 62.08002 | 36870 ft | 520 kts | 95° |
| 2026-04-30 09:06 | 24.02753 | 62.15887 | 36870 ft | 520 kts | 95° |
| 2026-04-30 09:07 | 24.02252 | 62.23707 | 36870 ft | 520 kts | 95° |
| 2026-04-30 09:07 | 24.01741 | 62.31614 | 36870 ft | 520 kts | 95° |
| 2026-04-30 09:08 | 24.01228 | 62.39479 | 36870 ft | 520 kts | 95° |
| 2026-04-30 09:08 | 24.00711 | 62.47343 | 36870 ft | 520 kts | 95° |
| 2026-04-30 09:09 | 24.00193 | 62.55168 | 36870 ft | 520 kts | 95° |
| 2026-04-30 09:09 | 23.99667 | 62.63057 | 36870 ft | 520 kts | 95° |
| 2026-04-30 09:10 | 23.99142 | 62.70874 | 36869 ft | 520 kts | 95° |
| 2026-04-30 09:10 | 23.98608 | 62.78762 | 36871 ft | 520 kts | 95° |
| 2026-04-30 09:11 | 23.98071 | 62.86631 | 36862 ft | 520 kts | 95° |
| 2026-04-30 09:11 | 23.97532 | 62.94462 | 36854 ft | 519 kts | 95° |
| 2026-04-30 09:12 | 23.96986 | 63.02316 | 36849 ft | 518 kts | 95° |
| 2026-04-30 09:12 | 23.96441 | 63.10104 | 36846 ft | 517 kts | 95° |
| 2026-04-30 09:13 | 23.95893 | 63.17916 | 36843 ft | 516 kts | 95° |
| 2026-04-30 09:13 | 23.95340 | 63.25752 | 36827 ft | 516 kts | 95° |
| 2026-04-30 09:14 | 23.94784 | 63.33552 | 36798 ft | 516 kts | 95° |
| 2026-04-30 09:14 | 23.94224 | 63.41346 | 36763 ft | 516 kts | 95° |
| 2026-04-30 09:15 | 23.93661 | 63.49135 | 36737 ft | 516 kts | 95° |
| 2026-04-30 09:15 | 23.93092 | 63.56937 | 36722 ft | 516 kts | 95° |
| 2026-04-30 09:16 | 23.92525 | 63.64677 | 36714 ft | 516 kts | 95° |
| 2026-04-30 09:16 | 23.91949 | 63.72486 | 36710 ft | 516 kts | 95° |
| 2026-04-30 09:17 | 23.91369 | 63.80279 | 36709 ft | 516 kts | 95° |
| 2026-04-30 09:17 | 23.90786 | 63.88067 | 36708 ft | 516 kts | 95° |
| 2026-04-30 09:18 | 23.90199 | 63.95858 | 36708 ft | 516 kts | 95° |
| 2026-04-30 09:18 | 23.89608 | 64.03635 | 36708 ft | 516 kts | 95° |
| 2026-04-30 09:19 | 23.89013 | 64.11425 | 36707 ft | 516 kts | 95° |
| 2026-04-30 09:19 | 23.88414 | 64.19213 | 36707 ft | 516 kts | 95° |
| 2026-04-30 09:20 | 23.87811 | 64.27003 | 36707 ft | 516 kts | 95° |
| 2026-04-30 09:20 | 23.87204 | 64.34797 | 36707 ft | 516 kts | 95° |
| 2026-04-30 09:21 | 23.86593 | 64.42602 | 36707 ft | 516 kts | 95° |
| 2026-04-30 09:21 | 23.85981 | 64.50350 | 36707 ft | 516 kts | 95° |
| 2026-04-30 09:22 | 23.85361 | 64.58150 | 36707 ft | 516 kts | 95° |
| 2026-04-30 09:22 | 23.84741 | 64.65896 | 36706 ft | 516 kts | 95° |
| 2026-04-30 09:23 | 23.84115 | 64.73679 | 36707 ft | 516 kts | 95° |
| 2026-04-30 09:23 | 23.83500 | 64.81468 | 36707 ft | 516 kts | 94° |
| 2026-04-30 09:24 | 23.83341 | 64.89278 | 36708 ft | 516 kts | 90° |
| 2026-04-30 09:24 | 23.83403 | 64.97083 | 36708 ft | 515 kts | 89° |
| 2026-04-30 09:25 | 23.83465 | 65.04879 | 36708 ft | 514 kts | 89° |
| 2026-04-30 09:25 | 23.83513 | 65.12657 | 36707 ft | 514 kts | 90° |
| 2026-04-30 09:26 | 23.83553 | 65.20488 | 36707 ft | 514 kts | 90° |
| 2026-04-30 09:26 | 23.83587 | 65.28271 | 36707 ft | 514 kts | 90° |
| 2026-04-30 09:27 | 23.83617 | 65.36047 | 36707 ft | 514 kts | 90° |
| 2026-04-30 09:27 | 23.83643 | 65.43838 | 36707 ft | 514 kts | 90° |
| 2026-04-30 09:28 | 23.83665 | 65.51608 | 36707 ft | 514 kts | 90° |
| 2026-04-30 09:28 | 23.83683 | 65.59389 | 36707 ft | 514 kts | 90° |
| 2026-04-30 09:29 | 23.83698 | 65.67194 | 36706 ft | 514 kts | 90° |
| 2026-04-30 09:29 | 23.83708 | 65.74997 | 36707 ft | 514 kts | 90° |
| 2026-04-30 09:30 | 23.83714 | 65.82745 | 36708 ft | 514 kts | 90° |
| 2026-04-30 09:30 | 23.83717 | 65.90524 | 36707 ft | 514 kts | 90° |
| 2026-04-30 09:31 | 23.83716 | 65.98312 | 36708 ft | 514 kts | 90° |
| 2026-04-30 09:31 | 23.83710 | 66.06100 | 36708 ft | 514 kts | 90° |
| 2026-04-30 09:32 | 23.83701 | 66.13929 | 36707 ft | 514 kts | 90° |
| 2026-04-30 09:32 | 23.83688 | 66.21706 | 36707 ft | 514 kts | 90° |
| 2026-04-30 09:33 | 23.83670 | 66.29490 | 36707 ft | 514 kts | 90° |
| 2026-04-30 09:33 | 23.83649 | 66.37278 | 36707 ft | 514 kts | 90° |
| 2026-04-30 09:34 | 23.83625 | 66.45066 | 36707 ft | 514 kts | 90° |
| 2026-04-30 09:34 | 23.83596 | 66.52819 | 36707 ft | 514 kts | 90° |
| 2026-04-30 09:35 | 23.83562 | 66.60634 | 36707 ft | 514 kts | 90° |
| 2026-04-30 09:35 | 23.83526 | 66.68417 | 36706 ft | 514 kts | 90° |
| 2026-04-30 09:36 | 23.83485 | 66.76170 | 36707 ft | 514 kts | 90° |
| 2026-04-30 09:36 | 23.83440 | 66.83953 | 36708 ft | 514 kts | 90° |
| 2026-04-30 09:37 | 23.83390 | 66.91759 | 36707 ft | 514 kts | 90° |
| 2026-04-30 09:37 | 23.83575 | 66.99534 | 36707 ft | 514 kts | 85° |
| 2026-04-30 09:38 | 23.84497 | 67.07265 | 36708 ft | 513 kts | 79° |
| 2026-04-30 09:38 | 23.85770 | 67.14873 | 36707 ft | 512 kts | 79° |
| 2026-04-30 09:39 | 23.87062 | 67.22526 | 36707 ft | 512 kts | 79° |
| 2026-04-30 09:39 | 23.88325 | 67.30123 | 36707 ft | 511 kts | 79° |
| 2026-04-30 09:40 | 23.89578 | 67.37727 | 36707 ft | 511 kts | 79° |
| 2026-04-30 09:40 | 23.90834 | 67.45385 | 36707 ft | 511 kts | 79° |
| 2026-04-30 09:41 | 23.92073 | 67.52968 | 36707 ft | 512 kts | 79° |
| 2026-04-30 09:41 | 23.93317 | 67.60604 | 36706 ft | 511 kts | 79° |
| 2026-04-30 09:42 | 23.94560 | 67.68263 | 36706 ft | 511 kts | 79° |
| 2026-04-30 09:42 | 23.95791 | 67.75862 | 36708 ft | 511 kts | 79° |
| 2026-04-30 09:43 | 23.97025 | 67.83508 | 36708 ft | 511 kts | 79° |
| 2026-04-30 09:43 | 23.98247 | 67.91110 | 36707 ft | 511 kts | 79° |
| 2026-04-30 09:44 | 23.99473 | 67.98764 | 36707 ft | 511 kts | 79° |
| 2026-04-30 09:44 | 24.00688 | 68.06373 | 36707 ft | 511 kts | 79° |
| 2026-04-30 09:45 | 24.01908 | 68.14030 | 36707 ft | 511 kts | 79° |
| 2026-04-30 09:45 | 24.03114 | 68.21636 | 36708 ft | 511 kts | 79° |
| 2026-04-30 09:46 | 24.04327 | 68.29309 | 36707 ft | 511 kts | 79° |
| 2026-04-30 09:46 | 24.05527 | 68.36923 | 36705 ft | 511 kts | 79° |
| 2026-04-30 09:47 | 24.06725 | 68.44551 | 36707 ft | 511 kts | 79° |
| 2026-04-30 09:47 | 24.07928 | 68.52235 | 36707 ft | 511 kts | 79° |
| 2026-04-30 09:48 | 24.09118 | 68.59866 | 36706 ft | 511 kts | 79° |
| 2026-04-30 09:48 | 24.10304 | 68.67501 | 36705 ft | 511 kts | 80° |
| 2026-04-30 09:49 | 24.11341 | 68.75185 | 36706 ft | 511 kts | 84° |
| 2026-04-30 09:49 | 24.11673 | 68.82888 | 36707 ft | 511 kts | 90° |
| 2026-04-30 09:50 | 24.11567 | 68.90685 | 36707 ft | 512 kts | 91° |
| 2026-04-30 09:50 | 24.11433 | 68.98448 | 36706 ft | 512 kts | 91° |
| 2026-04-30 09:51 | 24.11306 | 69.06216 | 36707 ft | 511 kts | 91° |
| 2026-04-30 09:51 | 24.11184 | 69.13918 | 36707 ft | 510 kts | 91° |
| 2026-04-30 09:52 | 24.11060 | 69.21709 | 36707 ft | 510 kts | 91° |
| 2026-04-30 09:52 | 24.10933 | 69.29404 | 36708 ft | 510 kts | 91° |
| 2026-04-30 09:53 | 24.10802 | 69.37164 | 36708 ft | 510 kts | 91° |
| 2026-04-30 09:53 | 24.10667 | 69.44912 | 36707 ft | 510 kts | 91° |
| 2026-04-30 09:54 | 24.10529 | 69.52657 | 36706 ft | 510 kts | 91° |
| 2026-04-30 09:54 | 24.10386 | 69.60362 | 36708 ft | 510 kts | 91° |
| 2026-04-30 09:55 | 24.10240 | 69.68134 | 36707 ft | 510 kts | 91° |
| 2026-04-30 09:55 | 24.10088 | 69.75878 | 36711 ft | 510 kts | 91° |
| 2026-04-30 09:56 | 24.09934 | 69.83601 | 36719 ft | 510 kts | 91° |
| 2026-04-30 09:56 | 24.09775 | 69.91349 | 36726 ft | 510 kts | 91° |
| 2026-04-30 09:57 | 24.09614 | 69.99053 | 36732 ft | 511 kts | 91° |
| 2026-04-30 09:57 | 24.09447 | 70.06821 | 36735 ft | 510 kts | 91° |
| 2026-04-30 09:58 | 24.09277 | 70.14594 | 36737 ft | 510 kts | 91° |
| 2026-04-30 09:58 | 24.09104 | 70.22317 | 36735 ft | 511 kts | 91° |
| 2026-04-30 09:59 | 24.08744 | 70.37798 | 36721 ft | 510 kts | 91° |
| 2026-04-30 10:00 | 24.08464 | 70.49411 | 36712 ft | 510 kts | 91° |
| 2026-04-30 10:01 | 24.08176 | 70.60970 | 36709 ft | 510 kts | 91° |
| 2026-04-30 10:02 | 24.07878 | 70.72587 | 36707 ft | 510 kts | 92° |
| 2026-04-30 10:02 | 24.07675 | 70.80325 | 36707 ft | 510 kts | 92° |
| 2026-04-30 10:03 | 24.07468 | 70.88062 | 36706 ft | 510 kts | 92° |
| 2026-04-30 10:03 | 24.07256 | 70.95805 | 36707 ft | 510 kts | 92° |
| 2026-04-30 10:04 | 24.07043 | 71.03497 | 36708 ft | 509 kts | 92° |
| 2026-04-30 10:04 | 24.06827 | 71.11254 | 36708 ft | 508 kts | 92° |
| 2026-04-30 10:05 | 24.06610 | 71.18901 | 36708 ft | 508 kts | 92° |
| 2026-04-30 10:05 | 24.06385 | 71.26659 | 36708 ft | 508 kts | 92° |
| 2026-04-30 10:06 | 24.06158 | 71.34357 | 36707 ft | 509 kts | 92° |
| 2026-04-30 10:06 | 24.05926 | 71.42052 | 36707 ft | 509 kts | 92° |
| 2026-04-30 10:07 | 24.05690 | 71.49776 | 36708 ft | 509 kts | 92° |
| 2026-04-30 10:07 | 24.05451 | 71.57480 | 36708 ft | 509 kts | 92° |
| 2026-04-30 10:08 | 24.05208 | 71.65185 | 36709 ft | 508 kts | 92° |
| 2026-04-30 10:08 | 24.04961 | 71.72893 | 36708 ft | 509 kts | 92° |
| 2026-04-30 10:09 | 24.04709 | 71.80605 | 36707 ft | 509 kts | 92° |
| 2026-04-30 10:09 | 24.04454 | 71.88309 | 36708 ft | 509 kts | 92° |
| 2026-04-30 10:10 | 24.04195 | 71.96024 | 36707 ft | 509 kts | 92° |
| 2026-04-30 10:10 | 24.03933 | 72.03745 | 36708 ft | 509 kts | 92° |
| 2026-04-30 10:11 | 24.03666 | 72.11452 | 36707 ft | 509 kts | 92° |
| 2026-04-30 10:11 | 24.03396 | 72.19149 | 36707 ft | 509 kts | 92° |
| 2026-04-30 10:12 | 24.03122 | 72.26858 | 36708 ft | 509 kts | 92° |
| 2026-04-30 10:12 | 24.02844 | 72.34571 | 36707 ft | 508 kts | 92° |
| 2026-04-30 10:13 | 24.02562 | 72.42262 | 36708 ft | 508 kts | 92° |
| 2026-04-30 10:13 | 24.02277 | 72.49931 | 36708 ft | 509 kts | 92° |
| 2026-04-30 10:14 | 24.01985 | 72.57693 | 36708 ft | 509 kts | 92° |
| 2026-04-30 10:14 | 24.01664 | 72.69249 | 36706 ft | 509 kts | 90° |
| 2026-04-30 10:15 | 24.01757 | 72.76934 | 36707 ft | 509 kts | 89° |
| 2026-04-30 10:15 | 24.01866 | 72.84808 | 36707 ft | 509 kts | 89° |
| 2026-04-30 10:16 | 24.01945 | 72.91013 | 36706 ft | 509 kts | 89° |
| 2026-04-30 10:17 | 24.02077 | 73.02563 | 36706 ft | 509 kts | 89° |
| 2026-04-30 10:17 | 24.02199 | 73.14174 | 36707 ft | 510 kts | 89° |
| 2026-04-30 10:18 | 24.02275 | 73.21864 | 36707 ft | 511 kts | 89° |
| 2026-04-30 10:19 | 24.02381 | 73.33392 | 36708 ft | 511 kts | 89° |
| 2026-04-30 10:19 | 24.02444 | 73.40789 | 36707 ft | 511 kts | 89° |
| 2026-04-30 10:20 | 24.02508 | 73.48733 | 36708 ft | 511 kts | 89° |
| 2026-04-30 10:20 | 24.02594 | 73.60318 | 36707 ft | 511 kts | 89° |
| 2026-04-30 10:21 | 24.02645 | 73.68021 | 36706 ft | 511 kts | 90° |
| 2026-04-30 10:21 | 24.02694 | 73.75768 | 36706 ft | 511 kts | 90° |
| 2026-04-30 10:22 | 24.02743 | 73.83536 | 36707 ft | 511 kts | 90° |
| 2026-04-30 10:22 | 24.02787 | 73.91277 | 36707 ft | 511 kts | 90° |
| 2026-04-30 10:23 | 24.02825 | 73.99038 | 36707 ft | 511 kts | 90° |
| 2026-04-30 10:23 | 24.02859 | 74.06813 | 36708 ft | 511 kts | 90° |
| 2026-04-30 10:24 | 24.02943 | 74.14535 | 36707 ft | 512 kts | 89° |
| 2026-04-30 10:24 | 24.03069 | 74.22291 | 36708 ft | 511 kts | 89° |
| 2026-04-30 10:25 | 24.03184 | 74.30069 | 36721 ft | 511 kts | 89° |
| 2026-04-30 10:25 | 24.03289 | 74.37817 | 36744 ft | 511 kts | 89° |
| 2026-04-30 10:26 | 24.03389 | 74.45574 | 36772 ft | 511 kts | 89° |
| 2026-04-30 10:26 | 24.03484 | 74.53322 | 36794 ft | 511 kts | 89° |
| 2026-04-30 10:27 | 24.03574 | 74.61061 | 36805 ft | 512 kts | 89° |
| 2026-04-30 10:27 | 24.03484 | 74.68626 | 36808 ft | 511 kts | 94° |
| 2026-04-30 10:28 | 24.02680 | 74.76289 | 36813 ft | 511 kts | 101° |
| 2026-04-30 10:28 | 24.01103 | 74.83823 | 36814 ft | 510 kts | 107° |
| 2026-04-30 10:29 | 23.99044 | 74.91151 | 36815 ft | 509 kts | 108° |
| 2026-04-30 10:29 | 23.96940 | 74.98514 | 36816 ft | 509 kts | 108° |
| 2026-04-30 10:30 | 23.94838 | 75.05920 | 36816 ft | 509 kts | 108° |
| 2026-04-30 10:30 | 23.92756 | 75.13277 | 36816 ft | 509 kts | 108° |
| 2026-04-30 10:31 | 23.90666 | 75.20654 | 36816 ft | 509 kts | 108° |
| 2026-04-30 10:31 | 23.88631 | 75.27823 | 36816 ft | 509 kts | 108° |
| 2026-04-30 10:32 | 23.86529 | 75.35219 | 36816 ft | 509 kts | 108° |
| 2026-04-30 10:32 | 23.84441 | 75.42546 | 36815 ft | 509 kts | 108° |
| 2026-04-30 10:33 | 23.82347 | 75.49884 | 36815 ft | 509 kts | 108° |
| 2026-04-30 10:33 | 23.80238 | 75.57259 | 36815 ft | 509 kts | 108° |
| 2026-04-30 10:34 | 23.78139 | 75.64585 | 36815 ft | 509 kts | 108° |
| 2026-04-30 10:34 | 23.76034 | 75.71916 | 36815 ft | 509 kts | 109° |
| 2026-04-30 10:35 | 23.73928 | 75.79239 | 36816 ft | 509 kts | 109° |
| 2026-04-30 10:35 | 23.71802 | 75.86614 | 36816 ft | 509 kts | 109° |
| 2026-04-30 10:36 | 23.69690 | 75.93927 | 36816 ft | 509 kts | 109° |
| 2026-04-30 10:36 | 23.67565 | 76.01264 | 36816 ft | 509 kts | 109° |
| 2026-04-30 10:37 | 23.65435 | 76.08575 | 36816 ft | 509 kts | 109° |
| 2026-04-30 10:37 | 23.63284 | 76.15930 | 36814 ft | 509 kts | 109° |
| 2026-04-30 10:38 | 23.61143 | 76.23241 | 36807 ft | 509 kts | 109° |
| 2026-04-30 10:38 | 23.58991 | 76.30578 | 36798 ft | 509 kts | 109° |
| 2026-04-30 10:39 | 23.56840 | 76.37901 | 36791 ft | 509 kts | 109° |
| 2026-04-30 10:39 | 23.54693 | 76.45194 | 36784 ft | 509 kts | 109° |
| 2026-04-30 10:40 | 23.52528 | 76.52535 | 36775 ft | 509 kts | 109° |
| 2026-04-30 10:40 | 23.50372 | 76.59829 | 36761 ft | 509 kts | 109° |
| 2026-04-30 10:41 | 23.48218 | 76.67104 | 36747 ft | 509 kts | 109° |
| 2026-04-30 10:41 | 23.46032 | 76.74472 | 36741 ft | 509 kts | 109° |
| 2026-04-30 10:42 | 23.43858 | 76.81786 | 36737 ft | 509 kts | 109° |
| 2026-04-30 10:42 | 23.41694 | 76.89050 | 36735 ft | 509 kts | 109° |
| 2026-04-30 10:43 | 23.39502 | 76.96398 | 36734 ft | 510 kts | 109° |
| 2026-04-30 10:43 | 23.37313 | 77.03723 | 36734 ft | 510 kts | 109° |
| 2026-04-30 10:44 | 23.35115 | 77.11066 | 36734 ft | 510 kts | 109° |
| 2026-04-30 10:44 | 23.32927 | 77.18359 | 36734 ft | 510 kts | 109° |
| 2026-04-30 10:45 | 23.30742 | 77.25672 | 36734 ft | 511 kts | 108° |
| 2026-04-30 10:45 | 23.29017 | 77.33086 | 36734 ft | 511 kts | 102° |
| 2026-04-30 10:46 | 23.28038 | 77.40636 | 36734 ft | 512 kts | 95° |
| 2026-04-30 10:46 | 23.27666 | 77.48342 | 36735 ft | 512 kts | 92° |
| 2026-04-30 10:47 | 23.27382 | 77.56018 | 36734 ft | 512 kts | 92° |
| 2026-04-30 10:47 | 23.27077 | 77.63717 | 36734 ft | 512 kts | 92° |
| 2026-04-30 10:48 | 23.26772 | 77.71027 | 36733 ft | 512 kts | 93° |
| 2026-04-30 10:48 | 23.26441 | 77.78779 | 36734 ft | 512 kts | 93° |
| 2026-04-30 10:49 | 23.26110 | 77.86430 | 36734 ft | 512 kts | 93° |
| 2026-04-30 10:49 | 23.25771 | 77.94176 | 36734 ft | 512 kts | 93° |
| 2026-04-30 10:50 | 23.25430 | 78.01872 | 36734 ft | 512 kts | 93° |
| 2026-04-30 10:50 | 23.25086 | 78.09566 | 36734 ft | 512 kts | 93° |
| 2026-04-30 10:51 | 23.24737 | 78.17275 | 36734 ft | 512 kts | 93° |
| 2026-04-30 10:51 | 23.24386 | 78.24959 | 36734 ft | 512 kts | 93° |
| 2026-04-30 10:52 | 23.24031 | 78.32646 | 36734 ft | 512 kts | 93° |
| 2026-04-30 10:52 | 23.23668 | 78.40408 | 36734 ft | 512 kts | 93° |
| 2026-04-30 10:53 | 23.23305 | 78.48109 | 36734 ft | 512 kts | 93° |
| 2026-04-30 10:53 | 23.22936 | 78.55825 | 36734 ft | 512 kts | 93° |
| 2026-04-30 10:54 | 23.22567 | 78.63486 | 36734 ft | 512 kts | 93° |
| 2026-04-30 10:54 | 23.22191 | 78.71188 | 36733 ft | 512 kts | 93° |
| 2026-04-30 10:55 | 23.21972 | 78.78879 | 36734 ft | 512 kts | 91° |
| 2026-04-30 10:55 | 23.21869 | 78.86613 | 36734 ft | 512 kts | 91° |
| 2026-04-30 10:56 | 23.21763 | 78.94322 | 36734 ft | 512 kts | 91° |
| 2026-04-30 10:56 | 23.21647 | 79.02026 | 36734 ft | 512 kts | 91° |
| 2026-04-30 10:57 | 23.21525 | 79.09730 | 36734 ft | 512 kts | 91° |
| 2026-04-30 10:57 | 23.21398 | 79.17484 | 36734 ft | 512 kts | 91° |
| 2026-04-30 10:58 | 23.21269 | 79.25183 | 36734 ft | 512 kts | 91° |
| 2026-04-30 10:58 | 23.21136 | 79.32892 | 36734 ft | 512 kts | 91° |
| 2026-04-30 10:59 | 23.21001 | 79.40459 | 36734 ft | 512 kts | 91° |
| 2026-04-30 10:59 | 23.20860 | 79.48148 | 36734 ft | 512 kts | 91° |
| 2026-04-30 11:00 | 23.20714 | 79.55868 | 36734 ft | 512 kts | 91° |
| 2026-04-30 11:00 | 23.20453 | 79.63605 | 36734 ft | 512 kts | 92° |
| 2026-04-30 11:01 | 23.20109 | 79.71271 | 36733 ft | 512 kts | 93° |
| 2026-04-30 11:01 | 23.19771 | 79.78941 | 36734 ft | 512 kts | 92° |
| 2026-04-30 11:02 | 23.19438 | 79.86632 | 36734 ft | 512 kts | 92° |
| 2026-04-30 11:02 | 23.19104 | 79.94321 | 36734 ft | 512 kts | 92° |
| 2026-04-30 11:03 | 23.18768 | 80.01931 | 36734 ft | 512 kts | 92° |
| 2026-04-30 11:04 | 23.18221 | 80.13447 | 36734 ft | 512 kts | 93° |
| 2026-04-30 11:04 | 23.17816 | 80.21210 | 36734 ft | 512 kts | 93° |
| 2026-04-30 11:05 | 23.17414 | 80.28892 | 36734 ft | 512 kts | 93° |
| 2026-04-30 11:05 | 23.17008 | 80.36605 | 36734 ft | 512 kts | 93° |
| 2026-04-30 11:06 | 23.16601 | 80.44286 | 36734 ft | 512 kts | 93° |
| 2026-04-30 11:06 | 23.16189 | 80.51987 | 36734 ft | 512 kts | 93° |
| 2026-04-30 11:07 | 23.15773 | 80.59692 | 36734 ft | 512 kts | 93° |
| 2026-04-30 11:07 | 23.15377 | 80.66956 | 36733 ft | 512 kts | 93° |
| 2026-04-30 11:08 | 23.14959 | 80.74555 | 36734 ft | 512 kts | 93° |
| 2026-04-30 11:08 | 23.14532 | 80.82399 | 36734 ft | 512 kts | 93° |
| 2026-04-30 11:09 | 23.14117 | 80.90121 | 36734 ft | 512 kts | 93° |
| 2026-04-30 11:09 | 23.13698 | 80.97805 | 36734 ft | 512 kts | 93° |
| 2026-04-30 11:10 | 23.13273 | 81.05501 | 36734 ft | 512 kts | 93° |
| 2026-04-30 11:10 | 23.12846 | 81.13178 | 36734 ft | 511 kts | 93° |
| 2026-04-30 11:11 | 23.12412 | 81.20901 | 36734 ft | 511 kts | 93° |
| 2026-04-30 11:11 | 23.11978 | 81.28550 | 36729 ft | 511 kts | 93° |
| 2026-04-30 11:12 | 23.11538 | 81.36262 | 36720 ft | 511 kts | 93° |
| 2026-04-30 11:12 | 23.11094 | 81.43955 | 36714 ft | 511 kts | 93° |
| 2026-04-30 11:13 | 23.10649 | 81.51613 | 36710 ft | 511 kts | 93° |
| 2026-04-30 11:13 | 23.10197 | 81.59321 | 36709 ft | 511 kts | 93° |
| 2026-04-30 11:14 | 23.09746 | 81.66956 | 36706 ft | 511 kts | 94° |
| 2026-04-30 11:14 | 23.09288 | 81.74621 | 36707 ft | 511 kts | 94° |
| 2026-04-30 11:15 | 23.08826 | 81.82300 | 36707 ft | 511 kts | 94° |
| 2026-04-30 11:15 | 23.08360 | 81.89985 | 36707 ft | 511 kts | 94° |
| 2026-04-30 11:16 | 23.07891 | 81.97665 | 36704 ft | 511 kts | 94° |
| 2026-04-30 11:16 | 23.07416 | 82.05370 | 36700 ft | 511 kts | 94° |
| 2026-04-30 11:17 | 23.06938 | 82.13062 | 36694 ft | 511 kts | 94° |
| 2026-04-30 11:17 | 23.06509 | 82.20714 | 36689 ft | 511 kts | 92° |
| 2026-04-30 11:18 | 23.06193 | 82.28373 | 36685 ft | 511 kts | 92° |
| 2026-04-30 11:18 | 23.05708 | 82.39939 | 36682 ft | 511 kts | 92° |
| 2026-04-30 11:19 | 23.05372 | 82.47604 | 36681 ft | 511 kts | 92° |
| 2026-04-30 11:19 | 23.05027 | 82.55328 | 36681 ft | 511 kts | 92° |
| 2026-04-30 11:20 | 23.04681 | 82.62965 | 36681 ft | 511 kts | 92° |
| 2026-04-30 11:20 | 23.04337 | 82.70490 | 36680 ft | 511 kts | 93° |
| 2026-04-30 11:21 | 23.03983 | 82.78143 | 36680 ft | 511 kts | 93° |
| 2026-04-30 11:21 | 23.03690 | 82.84419 | 36681 ft | 511 kts | 93° |
| 2026-04-30 11:22 | 23.03329 | 82.92094 | 36681 ft | 510 kts | 93° |
| 2026-04-30 11:22 | 23.02966 | 82.99721 | 36681 ft | 510 kts | 93° |
| 2026-04-30 11:23 | 23.02597 | 83.07398 | 36681 ft | 509 kts | 93° |
| 2026-04-30 11:24 | 23.02039 | 83.18838 | 36681 ft | 509 kts | 93° |
| 2026-04-30 11:24 | 23.01660 | 83.26517 | 36681 ft | 509 kts | 93° |
| 2026-04-30 11:25 | 23.01088 | 83.37979 | 36681 ft | 508 kts | 93° |
| 2026-04-30 11:26 | 23.00313 | 83.53258 | 36681 ft | 508 kts | 93° |
| 2026-04-30 11:26 | 22.99922 | 83.60851 | 36681 ft | 508 kts | 93° |
| 2026-04-30 11:27 | 22.99525 | 83.68507 | 36680 ft | 508 kts | 93° |
| 2026-04-30 11:27 | 22.99124 | 83.76131 | 36680 ft | 508 kts | 93° |
| 2026-04-30 11:28 | 22.98518 | 83.87546 | 36680 ft | 508 kts | 93° |
| 2026-04-30 11:29 | 22.98109 | 83.95168 | 36681 ft | 508 kts | 93° |
| 2026-04-30 11:29 | 22.97488 | 84.06608 | 36683 ft | 508 kts | 93° |
| 2026-04-30 11:30 | 22.96803 | 84.18070 | 36706 ft | 507 kts | 94° |
| 2026-04-30 11:31 | 22.96243 | 84.25681 | 36730 ft | 507 kts | 94° |
| 2026-04-30 11:31 | 22.95680 | 84.33291 | 36756 ft | 507 kts | 94° |
| 2026-04-30 11:32 | 22.95123 | 84.40871 | 36782 ft | 507 kts | 94° |
| 2026-04-30 11:32 | 22.94564 | 84.48472 | 36810 ft | 507 kts | 94° |
| 2026-04-30 11:33 | 22.93718 | 84.59885 | 36846 ft | 507 kts | 94° |
| 2026-04-30 11:33 | 22.93154 | 84.67431 | 36857 ft | 507 kts | 95° |
| 2026-04-30 11:34 | 22.92618 | 84.74561 | 36865 ft | 506 kts | 95° |
| 2026-04-30 11:34 | 22.92043 | 84.82156 | 36868 ft | 506 kts | 94° |
| 2026-04-30 11:35 | 22.91466 | 84.89723 | 36870 ft | 506 kts | 94° |
| 2026-04-30 11:35 | 22.90889 | 84.97269 | 36870 ft | 506 kts | 94° |
| 2026-04-30 11:36 | 22.90313 | 85.04751 | 36871 ft | 505 kts | 95° |
| 2026-04-30 11:36 | 22.89762 | 85.11853 | 36871 ft | 504 kts | 95° |
| 2026-04-30 11:37 | 22.89147 | 85.19808 | 36871 ft | 503 kts | 95° |
| 2026-04-30 11:37 | 22.88569 | 85.27303 | 36870 ft | 502 kts | 95° |
| 2026-04-30 11:38 | 22.87983 | 85.34837 | 36870 ft | 502 kts | 95° |
| 2026-04-30 11:38 | 22.87397 | 85.42330 | 36870 ft | 502 kts | 95° |
| 2026-04-30 11:39 | 22.86809 | 85.49798 | 36869 ft | 502 kts | 95° |
| 2026-04-30 11:39 | 22.86214 | 85.57309 | 36858 ft | 502 kts | 95° |
| 2026-04-30 11:40 | 22.85614 | 85.64834 | 36837 ft | 502 kts | 95° |
| 2026-04-30 11:40 | 22.85026 | 85.72173 | 36813 ft | 502 kts | 95° |
| 2026-04-30 11:41 | 22.84428 | 85.79591 | 36771 ft | 502 kts | 95° |
| 2026-04-30 11:41 | 22.84123 | 85.83361 | 36346 ft | 502 kts | 95° |
| 2026-04-30 11:41 | 22.83820 | 85.87080 | 35825 ft | 499 kts | 95° |
| 2026-04-30 11:42 | 22.83518 | 85.90794 | 35301 ft | 496 kts | 95° |
| 2026-04-30 11:42 | 22.83219 | 85.94449 | 34727 ft | 494 kts | 95° |
| 2026-04-30 11:42 | 22.82917 | 85.98135 | 33999 ft | 496 kts | 95° |
| 2026-04-30 11:42 | 22.82617 | 86.01784 | 33314 ft | 494 kts | 95° |
| 2026-04-30 11:43 | 22.82314 | 86.05467 | 32579 ft | 492 kts | 95° |
| 2026-04-30 11:43 | 22.82008 | 86.09167 | 31899 ft | 492 kts | 95° |
| 2026-04-30 11:43 | 22.81705 | 86.12814 | 31234 ft | 489 kts | 95° |
| 2026-04-30 11:43 | 22.81404 | 86.16421 | 30636 ft | 485 kts | 95° |
| 2026-04-30 11:44 | 22.81139 | 86.20051 | 30033 ft | 481 kts | 94° |
| 2026-04-30 11:44 | 22.80941 | 86.23637 | 29434 ft | 476 kts | 94° |
| 2026-04-30 11:44 | 22.80762 | 86.27206 | 28832 ft | 472 kts | 93° |
| 2026-04-30 11:44 | 22.80585 | 86.30741 | 28231 ft | 468 kts | 94° |
| 2026-04-30 11:45 | 22.80407 | 86.34207 | 27642 ft | 471 kts | 94° |
| 2026-04-30 11:45 | 22.80221 | 86.37744 | 27041 ft | 472 kts | 94° |
| 2026-04-30 11:45 | 22.80030 | 86.41313 | 26433 ft | 469 kts | 94° |
| 2026-04-30 11:45 | 22.79842 | 86.44798 | 25836 ft | 465 kts | 94° |
| 2026-04-30 11:46 | 22.79655 | 86.48218 | 25201 ft | 460 kts | 94° |
| 2026-04-30 11:46 | 22.79468 | 86.51631 | 24530 ft | 456 kts | 94° |
| 2026-04-30 11:46 | 22.79282 | 86.55010 | 23859 ft | 451 kts | 94° |
| 2026-04-30 11:46 | 22.79093 | 86.58412 | 23175 ft | 446 kts | 94° |
| 2026-04-30 11:47 | 22.78911 | 86.61687 | 22507 ft | 442 kts | 94° |
| 2026-04-30 11:47 | 22.78726 | 86.65007 | 21826 ft | 437 kts | 94° |
| 2026-04-30 11:47 | 22.78555 | 86.68057 | 21194 ft | 433 kts | 94° |
| 2026-04-30 11:47 | 22.78366 | 86.71420 | 20491 ft | 429 kts | 94° |
| 2026-04-30 11:48 | 22.78184 | 86.74639 | 19807 ft | 424 kts | 94° |
| 2026-04-30 11:48 | 22.78008 | 86.77743 | 19144 ft | 420 kts | 94° |
| 2026-04-30 11:48 | 22.77828 | 86.80914 | 18460 ft | 416 kts | 94° |
| 2026-04-30 11:48 | 22.77652 | 86.83995 | 17789 ft | 412 kts | 94° |
| 2026-04-30 11:49 | 22.77476 | 86.87060 | 17096 ft | 400 kts | 94° |
| 2026-04-30 11:49 | 22.77308 | 86.89996 | 16350 ft | 388 kts | 94° |
| 2026-04-30 11:49 | 22.77144 | 86.92849 | 15601 ft | 379 kts | 94° |
| 2026-04-30 11:49 | 22.76982 | 86.95647 | 14851 ft | 370 kts | 94° |
| 2026-04-30 11:50 | 22.76823 | 86.98392 | 14096 ft | 362 kts | 94° |
| 2026-04-30 11:50 | 22.76667 | 87.01070 | 13347 ft | 355 kts | 94° |
| 2026-04-30 11:50 | 22.76513 | 87.03706 | 12596 ft | 349 kts | 94° |
| 2026-04-30 11:50 | 22.76363 | 87.06277 | 11851 ft | 343 kts | 94° |
| 2026-04-30 11:51 | 22.76214 | 87.08822 | 11103 ft | 339 kts | 94° |
| 2026-04-30 11:51 | 22.76065 | 87.11363 | 10347 ft | 335 kts | 94° |
| 2026-04-30 11:51 | 22.75918 | 87.13831 | 9607 ft | 333 kts | 94° |
| 2026-04-30 11:51 | 22.75769 | 87.16339 | 8899 ft | 330 kts | 94° |
| 2026-04-30 11:52 | 22.75627 | 87.18785 | 8765 ft | 327 kts | 94° |
| 2026-04-30 11:52 | 22.75485 | 87.21217 | 8769 ft | 325 kts | 94° |
| 2026-04-30 11:52 | 22.75339 | 87.23687 | 8770 ft | 325 kts | 94° |
| 2026-04-30 11:52 | 22.75194 | 87.26105 | 8824 ft | 325 kts | 94° |
| 2026-04-30 11:53 | 22.75049 | 87.28526 | 8973 ft | 326 kts | 94° |
| 2026-04-30 11:53 | 22.74901 | 87.30975 | 9124 ft | 327 kts | 94° |
| 2026-04-30 11:53 | 22.74752 | 87.33454 | 9275 ft | 328 kts | 94° |
| 2026-04-30 11:53 | 22.74603 | 87.35913 | 9426 ft | 329 kts | 94° |
| 2026-04-30 11:54 | 22.74454 | 87.38385 | 9576 ft | 330 kts | 94° |
| 2026-04-30 11:54 | 22.74303 | 87.40862 | 9727 ft | 331 kts | 94° |
| 2026-04-30 11:54 | 22.74151 | 87.43370 | 9893 ft | 340 kts | 94° |
| 2026-04-30 11:54 | 22.73991 | 87.45974 | 10068 ft | 361 kts | 94° |
| 2026-04-30 11:55 | 22.73822 | 87.48732 | 10071 ft | 373 kts | 94° |
| 2026-04-30 11:55 | 22.73649 | 87.51564 | 10071 ft | 375 kts | 94° |
| 2026-04-30 11:55 | 22.73496 | 87.54356 | 10070 ft | 375 kts | 91° |
| 2026-04-30 11:55 | 22.73779 | 87.57199 | 10068 ft | 376 kts | 79° |
| 2026-04-30 11:56 | 22.74332 | 87.59970 | 10071 ft | 377 kts | 77° |
| 2026-04-30 11:56 | 22.74912 | 87.62714 | 10075 ft | 378 kts | 77° |
| 2026-04-30 11:56 | 22.75475 | 87.65471 | 10260 ft | 381 kts | 78° |
| 2026-04-30 11:56 | 22.76025 | 87.68289 | 10487 ft | 382 kts | 79° |
| 2026-04-30 11:57 | 22.76553 | 87.71078 | 10711 ft | 383 kts | 79° |
| 2026-04-30 11:57 | 22.77085 | 87.73952 | 10941 ft | 385 kts | 79° |
| 2026-04-30 11:57 | 22.77602 | 87.76785 | 11166 ft | 386 kts | 79° |
| 2026-04-30 11:57 | 22.78115 | 87.79615 | 11391 ft | 387 kts | 79° |
| 2026-04-30 11:58 | 22.78637 | 87.82508 | 11620 ft | 388 kts | 79° |
| 2026-04-30 11:58 | 22.79148 | 87.85349 | 11764 ft | 390 kts | 79° |
| 2026-04-30 11:58 | 22.79666 | 87.88234 | 11699 ft | 387 kts | 79° |
| 2026-04-30 11:58 | 22.80174 | 87.91067 | 11501 ft | 378 kts | 79° |
| 2026-04-30 11:59 | 22.80669 | 87.93830 | 11178 ft | 372 kts | 79° |
| 2026-04-30 11:59 | 22.81141 | 87.96468 | 10793 ft | 369 kts | 79° |
| 2026-04-30 11:59 | 22.81633 | 87.99225 | 10260 ft | 365 kts | 79° |
| 2026-04-30 11:59 | 22.82098 | 88.01830 | 9949 ft | 344 kts | 79° |
| 2026-04-30 12:00 | 22.82548 | 88.04354 | 9757 ft | 338 kts | 79° |
| 2026-04-30 12:00 | 22.82988 | 88.06834 | 9533 ft | 336 kts | 79° |
| 2026-04-30 12:00 | 22.83431 | 88.09323 | 9308 ft | 335 kts | 79° |
| 2026-04-30 12:00 | 22.83866 | 88.11777 | 9076 ft | 334 kts | 80° |
| 2026-04-30 12:01 | 22.84299 | 88.14217 | 8508 ft | 327 kts | 80° |
| 2026-04-30 12:01 | 22.84719 | 88.16582 | 7883 ft | 320 kts | 80° |
| 2026-04-30 12:01 | 22.85134 | 88.18922 | 7074 ft | 320 kts | 80° |
| 2026-04-30 12:01 | 22.85551 | 88.21276 | 6225 ft | 320 kts | 80° |
| 2026-04-30 12:02 | 22.85967 | 88.23632 | 5374 ft | 320 kts | 80° |
| 2026-04-30 12:02 | 22.86381 | 88.25974 | 4590 ft | 316 kts | 80° |
| 2026-04-30 12:02 | 22.86782 | 88.28241 | 4316 ft | 297 kts | 80° |
| 2026-04-30 12:02 | 22.87154 | 88.30349 | 4188 ft | 277 kts | 81° |
| 2026-04-30 12:03 | 22.87510 | 88.32368 | 4084 ft | 270 kts | 81° |
| 2026-04-30 12:03 | 22.88182 | 88.36195 | 4058 ft | 254 kts | 81° |
| 2026-04-30 12:03 | 22.88515 | 88.38097 | 4060 ft | 256 kts | 81° |
| 2026-04-30 12:04 | 22.88859 | 88.39984 | 4061 ft | 256 kts | 81° |
| 2026-04-30 12:04 | 22.89136 | 88.41815 | 4061 ft | 255 kts | 84° |
| 2026-04-30 12:04 | 22.89266 | 88.43687 | 4055 ft | 254 kts | 97° |
| 2026-04-30 12:04 | 22.88681 | 88.45364 | 4026 ft | 249 kts | 132° |
| 2026-04-30 12:05 | 22.87234 | 88.46439 | 4043 ft | 248 kts | 156° |
| 2026-04-30 12:05 | 22.85626 | 88.47096 | 3891 ft | 248 kts | 169° |
| 2026-04-30 12:05 | 22.83949 | 88.47061 | 3653 ft | 245 kts | 189° |
| 2026-04-30 12:05 | 22.82280 | 88.46703 | 3242 ft | 250 kts | 189° |
| 2026-04-30 12:06 | 22.80560 | 88.46397 | 2872 ft | 253 kts | 187° |
| 2026-04-30 12:06 | 22.78808 | 88.46179 | 2345 ft | 263 kts | 185° |
| 2026-04-30 12:06 | 22.76994 | 88.45996 | 1921 ft | 265 kts | 184° |
| 2026-04-30 12:06 | 22.75209 | 88.45813 | 1601 ft | 255 kts | 184° |
| 2026-04-30 12:07 | 22.73465 | 88.45557 | 1379 ft | 250 kts | 193° |
| 2026-04-30 12:07 | 22.72024 | 88.44703 | 1683 ft | 236 kts | 229° |
| 2026-04-30 12:07 | 22.71429 | 88.43012 | 1966 ft | 262 kts | 267° |
| 2026-04-30 12:07 | 22.71817 | 88.40986 | 1988 ft | 282 kts | 294° |
| 2026-04-30 12:08 | 22.72965 | 88.39284 | 2046 ft | 284 kts | 318° |
| 2026-04-30 12:08 | 22.74647 | 88.38224 | 2109 ft | 284 kts | 342° |
| 2026-04-30 12:08 | 22.76562 | 88.37987 | 2168 ft | 289 kts | 7° |
| 2026-04-30 12:08 | 22.78540 | 88.38653 | 2349 ft | 314 kts | 30° |
| 2026-04-30 12:09 | 22.80184 | 88.40080 | 2217 ft | 306 kts | 52° |
| 2026-04-30 12:09 | 22.81132 | 88.42097 | 2014 ft | 297 kts | 78° |
| 2026-04-30 12:09 | 22.81171 | 88.44214 | 1943 ft | 269 kts | 105° |
| 2026-04-30 12:09 | 22.80381 | 88.45891 | 1990 ft | 242 kts | 135° |
| 2026-04-30 12:10 | 22.79106 | 88.46776 | 2086 ft | 226 kts | 165° |
| 2026-04-30 12:10 | 22.77665 | 88.46835 | 2098 ft | 215 kts | 189° |
| 2026-04-30 12:10 | 22.76290 | 88.46474 | 2067 ft | 206 kts | 193° |
| 2026-04-30 12:10 | 22.75005 | 88.46115 | 1832 ft | 203 kts | 193° |
| 2026-04-30 12:11 | 22.73629 | 88.45721 | 1091 ft | 220 kts | 191° |
| 2026-04-30 12:11 | 22.72247 | 88.45484 | 753 ft | 209 kts | 185° |